Paso Robles Municipal Airport
KPRB : rendu visible

Aérodrome :











RETROUVEZ-NOUS SUR...

 
LOGIN :

S'inscrire | Disclaimer

   EN    FR    IT 

 









Légende :    VFR   VFR Marginal   IFR   IFR Intensif   IFR Très Intensif
Visi : 
Plafond : 
>= 8 km
>= 3000ft
5 à 8 km
1000 à 3000 ft
1500m à 5 km
500 à 1000 ft
800 à 1500m
200 à 500 ft
< 800m
< 200 ft
Symboles :   Orages  Brouillard  Fortes neiges  Fortes précipitations  Vent > 20 kt






- Altitude de l'aérodrome : 840 ft


KPRB - Paso Robles Municipal

DERNIER METAR :
  • 040753Z AUTO 31003KT 10SM CLR 23/08 A2985 RMK AO2 SLP097 T02280078 404060133

METARs EXPIRÉS :
  • 040653Z AUTO 33009KT 10SM CLR 24/08 A2986 RMK AO2 SLP100 T02440078
  • 040553Z AUTO 32011KT 10SM CLR 26/08 A2986 RMK AO2 SLP102 T02560083 10406 20256 53008

TAF KPRB
Valide du 04 à 06h jusqu'au 05 à 06h UTC


040534Z 0406/0506 30008KT P6SM SKC
FM040800 VRB03KT P6SM SKC
FM041900 20008KT P6SM SCT150
FM042200 20018KT P6SM SCT150
FM050400 21008KT P6SM SCT150
FIR KZOA / Amérique du Nord



MET'MAP, la Météo Aéronautique d'un coup d'oeil ! - Copyright ORBIFLY Décembre 2007 - Disclaimer

ORBIFLY MET'MAP TEAM :

Programmation & Développement : Alexandra Zaïnal
Sur une idée originale de : Baudouin d'Aumeries
Assistance à la programmation : Marc-Olivier Méhu
Soutien technique & logistique : Manuel Goepfert

Contact : metmap@orbifly.com




SOURCES & CREDITS :

   NOAA       Earth
Advisory